Time;durP1;ratioP1;P1;durP2;ratioP2;P2;SDS_P1;SDS_P2;PMS_P1;PMS_P2;Temp;Humidity;BMP_temperature;BMP_pressure;BME280_temperature;BME280_humidity;BME280_pressure;Samples;Min_cycle;Max_cycle;Signal;HPM_P1;HPM_P2
2022/07/18 00:00:58;;;;;;;13.18;5.93;;;16.10;99.90;;;;;;6157140;23;20084;-91
2022/07/18 00:03:24;;;;;;;12.40;6.05;;;15.60;99.90;;;;;;6130511;23;20532;-91
2022/07/18 00:06:07;;;;;;;12.00;6.00;;;15.60;99.90;;;;;;6129229;23;20018;-91
2022/07/18 00:08:33;;;;;;;13.27;6.00;;;15.60;99.90;;;;;;6130348;23;20024;-91
2022/07/18 00:11:19;;;;;;;12.05;5.85;;;15.80;99.90;;;;;;6130127;23;20017;-91
2022/07/18 00:13:45;;;;;;;12.45;6.18;;;15.60;99.90;;;;;;6128612;23;20017;-91
2022/07/18 00:16:22;;;;;;;14.32;6.45;;;15.90;99.90;;;;;;6157185;23;20465;-91
2022/07/18 00:19:22;;;;;;;12.00;6.20;;;16.30;99.90;;;;;;6129386;23;20092;-91
2022/07/18 00:22:01;;;;;;;12.82;5.82;;;15.50;99.90;;;;;;6130100;23;20061;-91
2022/07/18 00:24:27;;;;;;;11.82;5.70;;;16.00;99.90;;;;;;6156656;23;20458;-91
2022/07/18 00:27:09;;;;;;;11.68;5.70;;;15.90;99.90;;;;;;6156517;23;20041;-90
2022/07/18 00:29:36;;;;;;;11.75;5.65;;;16.40;99.90;;;;;;6140175;23;20013;-91
2022/07/18 00:32:20;;;;;;;12.70;5.95;;;16.10;99.90;;;;;;6130231;23;20009;-91
2022/07/18 00:34:46;;;;;;;11.93;6.18;;;16.20;99.90;;;;;;6129327;23;20025;-91
2022/07/18 00:37:18;;;;;;;12.23;5.53;;;15.50;99.90;;;;;;6156861;23;20319;-91
2022/07/18 00:39:44;;;;;;;13.10;5.60;;;15.50;99.90;;;;;;6156529;23;20021;-90
2022/07/18 00:42:10;;;;;;;12.02;5.70;;;15.70;99.90;;;;;;6129428;23;20256;-91
2022/07/18 00:44:55;;;;;;;12.60;5.85;;;15.50;99.90;;;;;;6157472;23;20396;-90
2022/07/18 00:47:36;;;;;;;13.70;6.03;;;15.20;99.90;;;;;;6129628;23;20016;-91
2022/07/18 00:50:05;;;;;;;13.50;6.20;;;16.10;99.90;;;;;;6130137;23;20021;-90
2022/07/18 00:52:31;;;;;;;13.43;6.30;;;15.60;99.90;;;;;;6156768;23;20024;-90
2022/07/18 00:54:57;;;;;;;13.85;6.63;;;15.70;99.90;;;;;;6156279;23;20350;-90
2022/07/18 00:57:23;;;;;;;11.80;6.13;;;14.30;99.90;;;;;;6156069;23;20467;-91
2022/07/18 01:02:33;;;;;;;14.05;6.25;;;15.60;99.90;;;;;;6129561;23;20104;-89
2022/07/18 01:05:23;;;;;;;14.82;6.80;;;15.20;99.90;;;;;;6129318;23;20045;-90
2022/07/18 01:08:06;;;;;;;12.75;6.25;;;14.70;99.90;;;;;;6129575;23;20346;-91
2022/07/18 01:10:32;;;;;;;13.73;6.03;;;15.00;99.90;;;;;;6130109;23;20014;-90
2022/07/18 01:13:11;;;;;;;13.48;5.95;;;15.60;99.90;;;;;;6126493;23;20017;-90
2022/07/18 01:15:54;;;;;;;14.07;6.50;;;15.50;99.90;;;;;;6133953;23;20051;-91
2022/07/18 01:18:20;;;;;;;12.32;6.07;;;15.50;99.90;;;;;;6158698;23;20009;-90
2022/07/18 01:21:05;;;;;;;13.13;6.05;;;14.80;99.90;;;;;;6131140;23;20517;-91
2022/07/18 01:23:31;;;;;;;13.80;6.38;;;14.90;99.90;;;;;;6156717;23;20407;-91
2022/07/18 01:26:13;;;;;;;12.57;6.53;;;14.80;99.90;;;;;;6155486;23;20021;-90
2022/07/18 01:28:39;;;;;;;12.82;5.65;;;14.80;99.90;;;;;;6129603;23;20036;-90
2022/07/18 01:31:05;;;;;;;13.95;6.18;;;15.00;99.90;;;;;;6128690;23;20049;-90
2022/07/18 01:33:49;;;;;;;14.57;6.63;;;14.80;99.90;;;;;;6129973;23;20468;-90
2022/07/18 01:36:14;;;;;;;12.90;5.55;;;14.70;99.90;;;;;;6129713;23;20338;-91
2022/07/18 01:38:40;;;;;;;12.77;6.30;;;15.30;99.90;;;;;;6130408;23;20017;-90
2022/07/18 01:41:24;;;;;;;14.23;6.60;;;14.90;99.90;;;;;;6155787;23;20010;-91
2022/07/18 01:43:50;;;;;;;13.60;6.43;;;15.00;99.90;;;;;;6156653;23;20022;-90
2022/07/18 01:46:31;;;;;;;15.25;6.43;;;15.40;99.90;;;;;;6131044;23;20020;-90
2022/07/18 01:48:59;;;;;;;13.85;6.53;;;14.60;99.90;;;;;;6158830;23;20014;-90
2022/07/18 01:51:25;;;;;;;14.27;6.45;;;14.00;99.90;;;;;;6164365;23;20476;-91
2022/07/18 01:54:09;;;;;;;15.18;5.95;;;15.20;99.90;;;;;;6145610;23;20044;-89
2022/07/18 01:56:35;;;;;;;12.98;5.90;;;15.10;99.90;;;;;;6173256;23;20057;-90
2022/07/18 01:59:19;;;;;;;13.55;6.05;;;14.30;99.90;;;;;;6145210;23;20012;-90
2022/07/18 02:01:45;;;;;;;12.73;6.68;;;14.60;99.90;;;;;;6176322;23;20053;-90
2022/07/18 02:04:12;;;;;;;13.75;6.53;;;14.30;99.90;;;;;;6133495;23;20024;-91
2022/07/18 02:06:55;;;;;;;12.98;6.22;;;14.30;99.90;;;;;;6129805;23;20025;-91
2022/07/18 02:09:21;;;;;;;15.15;6.45;;;14.60;99.90;;;;;;6129802;23;20334;-91
2022/07/18 02:11:46;;;;;;;13.23;6.22;;;14.70;99.90;;;;;;6128012;23;20489;-91
2022/07/18 02:14:12;;;;;;;12.68;6.30;;;14.50;99.90;;;;;;6155897;23;20030;-91
2022/07/18 02:16:53;;;;;;;11.60;5.75;;;14.60;99.90;;;;;;6144535;23;20033;-91
2022/07/18 02:19:21;;;;;;;12.93;6.03;;;14.20;99.90;;;;;;6157522;23;20017;-91
2022/07/18 02:21:47;;;;;;;13.15;6.50;;;14.20;99.90;;;;;;6154142;23;20067;-92
2022/07/18 02:24:23;;;;;;;13.00;6.50;;;14.10;99.90;;;;;;6159146;23;20002;-91
2022/07/18 02:26:49;;;;;;;13.07;6.10;;;14.80;99.90;;;;;;6167923;23;20017;-91
2022/07/18 02:29:20;;;;;;;12.70;6.18;;;14.20;99.90;;;;;;6156119;23;20064;-91
2022/07/18 02:31:46;;;;;;;14.88;6.07;;;14.60;99.90;;;;;;6129237;23;20018;-91
2022/07/18 02:34:12;;;;;;;14.68;6.43;;;14.40;99.90;;;;;;6137056;23;20028;-91
2022/07/18 02:36:39;;;;;;;15.95;6.72;;;14.60;99.90;;;;;;6130802;23;20049;-92
2022/07/18 02:39:24;;;;;;;13.68;6.00;;;14.00;99.90;;;;;;6130425;23;20064;-91
2022/07/18 02:41:50;;;;;;;13.38;6.38;;;14.00;99.90;;;;;;6128403;23;20117;-91
2022/07/18 02:44:16;;;;;;;13.43;6.38;;;13.90;99.90;;;;;;6155346;23;20110;-91
2022/07/18 02:46:41;;;;;;;13.35;6.47;;;13.90;99.90;;;;;;6128385;23;20029;-91
2022/07/18 02:49:07;;;;;;;15.15;6.40;;;14.50;99.90;;;;;;6155133;23;20024;-91
2022/07/18 02:51:33;;;;;;;15.20;6.68;;;14.50;99.90;;;;;;6155829;23;20024;-91
2022/07/18 02:53:59;;;;;;;13.98;6.18;;;13.90;99.90;;;;;;6154407;23;20122;-91
2022/07/18 02:56:45;;;;;;;12.30;5.85;;;14.80;99.90;;;;;;6155357;23;20029;-91
2022/07/18 02:59:10;;;;;;;11.88;5.88;;;13.80;99.90;;;;;;6128737;23;20049;-91
2022/07/18 03:01:36;;;;;;;13.02;6.05;;;13.80;99.90;;;;;;6153351;23;20455;-91
2022/07/18 03:04:22;;;;;;;12.77;6.60;;;13.80;99.90;;;;;;6153154;23;20014;-91
2022/07/18 03:06:49;;;;;;;13.20;6.22;;;13.40;99.90;;;;;;6128499;23;20028;-91
2022/07/18 03:09:15;;;;;;;12.52;5.57;;;14.00;99.90;;;;;;6130405;23;20413;-91
2022/07/18 03:11:41;;;;;;;12.70;6.05;;;13.90;99.90;;;;;;6156890;23;20501;-90
2022/07/18 03:14:08;;;;;;;12.40;5.80;;;13.60;99.90;;;;;;6130403;23;20032;-91
2022/07/18 03:16:48;;;;;;;11.85;5.85;;;14.40;99.90;;;;;;6129906;23;20069;-90
2022/07/18 03:19:14;;;;;;;14.32;5.70;;;13.80;99.90;;;;;;6157568;23;20025;-91
2022/07/18 03:21:39;;;;;;;13.00;5.30;;;13.60;99.90;;;;;;6156356;23;20017;-91
2022/07/18 03:24:05;;;;;;;12.93;5.40;;;13.50;99.90;;;;;;6130402;23;20022;-91
2022/07/18 03:26:31;;;;;;;13.93;5.72;;;13.50;99.90;;;;;;6157374;23;20045;-92
2022/07/18 03:28:56;;;;;;;12.43;5.60;;;13.50;99.90;;;;;;6130095;23;20022;-91
2022/07/18 03:31:22;;;;;;;12.48;5.53;;;14.30;99.90;;;;;;6132957;23;20022;-90
2022/07/18 03:33:48;;;;;;;12.30;5.20;;;13.40;99.90;;;;;;6181925;23;20029;-91
2022/07/18 03:36:14;;;;;;;11.93;5.32;;;13.40;99.90;;;;;;6169198;23;20049;-91
2022/07/18 03:38:42;;;;;;;16.95;7.15;;;13.40;99.90;;;;;;6130904;23;20013;-91
2022/07/18 03:41:10;;;;;;;12.43;5.72;;;13.40;99.90;;;;;;6157281;23;20023;-91
2022/07/18 03:43:37;;;;;;;13.55;5.45;;;13.30;99.90;;;;;;6130151;23;20009;-91
2022/07/18 03:46:03;;;;;;;14.82;5.65;;;13.40;99.90;;;;;;6156509;23;20028;-91
2022/07/18 03:48:29;;;;;;;12.25;5.68;;;13.30;99.90;;;;;;6130818;23;20140;-91
2022/07/18 03:50:55;;;;;;;12.60;5.50;;;13.40;99.90;;;;;;6132057;23;20041;-90
2022/07/18 03:53:20;;;;;;;13.07;5.53;;;13.40;99.90;;;;;;6139725;23;20025;-92
2022/07/18 03:55:46;;;;;;;13.55;6.03;;;13.60;99.90;;;;;;6158890;23;20069;-91
2022/07/18 03:58:12;;;;;;;11.93;5.55;;;13.40;99.90;;;;;;6175135;23;20017;-91
2022/07/18 04:00:37;;;;;;;13.65;5.60;;;13.50;99.90;;;;;;6166719;23;20025;-91
2022/07/18 04:03:03;;;;;;;14.10;5.70;;;13.50;99.90;;;;;;6158231;23;20329;-92
2022/07/18 04:05:29;;;;;;;13.68;5.97;;;13.60;99.90;;;;;;6156046;23;20021;-92
2022/07/18 04:07:54;;;;;;;12.65;5.97;;;13.60;99.90;;;;;;6130735;23;20021;-91
2022/07/18 04:10:20;;;;;;;12.73;5.38;;;13.60;99.90;;;;;;6167526;23;20018;-91
2022/07/18 04:12:52;;;;;;;13.25;5.53;;;13.60;99.90;;;;;;6143484;23;20374;-91
2022/07/18 04:15:19;;;;;;;13.32;5.53;;;13.60;99.90;;;;;;6158616;23;20080;-91
2022/07/18 04:17:45;;;;;;;13.43;5.65;;;13.60;99.90;;;;;;6129952;23;20042;-91
2022/07/18 04:20:12;;;;;;;14.75;5.40;;;13.60;99.90;;;;;;6168512;23;20119;-91
2022/07/18 04:22:55;;;;;;;12.25;5.53;;;13.70;99.90;;;;;;6135358;23;20049;-92
2022/07/18 04:25:23;;;;;;;12.90;5.57;;;13.70;99.90;;;;;;6156360;23;20044;-92
2022/07/18 04:27:50;;;;;;;12.40;5.50;;;13.80;99.90;;;;;;6129794;23;20013;-91
2022/07/18 04:30:19;;;;;;;12.32;5.65;;;13.80;99.90;;;;;;6156882;23;20013;-91
2022/07/18 04:32:45;;;;;;;15.32;5.82;;;13.80;99.90;;;;;;6155824;23;20338;-91
2022/07/18 04:35:11;;;;;;;13.57;5.30;;;13.90;99.90;;;;;;6154712;23;20096;-91
2022/07/18 04:37:41;;;;;;;12.07;5.10;;;13.90;99.90;;;;;;6156580;23;20485;-91
2022/07/18 04:40:09;;;;;;;13.60;5.53;;;14.00;99.90;;;;;;6155846;23;20014;-91
2022/07/18 04:42:35;;;;;;;11.63;4.63;;;14.10;99.90;;;;;;6156410;23;20390;-91
2022/07/18 04:45:01;;;;;;;13.50;5.60;;;14.10;99.90;;;;;;6129836;23;20463;-91
2022/07/18 04:47:28;;;;;;;11.93;4.93;;;14.20;99.90;;;;;;6129293;23;20073;-92
2022/07/18 04:49:55;;;;;;;12.93;5.70;;;14.50;99.90;;;;;;6129989;23;20014;-91
2022/07/18 04:52:21;;;;;;;11.85;5.40;;;14.30;99.90;;;;;;6130147;23;20025;-91
2022/07/18 04:54:46;;;;;;;12.63;5.07;;;14.80;99.90;;;;;;6129216;23;20092;-91
2022/07/18 04:57:14;;;;;;;11.23;5.13;;;14.50;99.90;;;;;;6131434;23;20024;-91
2022/07/18 04:59:41;;;;;;;10.35;4.60;;;14.60;99.90;;;;;;6159801;23;20010;-91
2022/07/18 05:02:08;;;;;;;14.30;5.22;;;14.70;99.90;;;;;;6156500;23;20025;-91
2022/07/18 05:04:34;;;;;;;10.52;4.90;;;14.80;99.90;;;;;;6132512;23;20024;-92
2022/07/18 05:07:00;;;;;;;11.35;5.00;;;14.90;99.90;;;;;;6154166;23;20025;-92
2022/07/18 05:09:26;;;;;;;16.50;4.93;;;15.00;99.90;;;;;;6143567;23;20025;-92
2022/07/18 05:11:52;;;;;;;11.90;4.40;;;15.10;99.90;;;;;;6163804;23;20421;-92
2022/07/18 05:14:32;;;;;;;10.43;4.07;;;15.60;99.90;;;;;;6149607;23;20047;-85
2022/07/18 05:16:58;;;;;;;11.02;4.10;;;15.90;99.90;;;;;;6129317;23;20020;-85
2022/07/18 05:19:24;;;;;;;11.23;3.95;;;15.80;99.90;;;;;;6128691;23;20068;-83
2022/07/18 05:24:44;;;;;;;10.13;4.00;;;16.40;99.90;;;;;;6109395;23;20021;-85
2022/07/18 05:27:25;;;;;;;13.27;4.38;;;15.70;99.90;;;;;;6153568;23;20017;-84
2022/07/18 05:29:50;;;;;;;9.43;3.55;;;15.80;99.90;;;;;;6154358;23;20045;-84
2022/07/18 05:32:16;;;;;;;12.13;3.90;;;16.70;99.90;;;;;;6129114;23;20454;-83
2022/07/18 05:34:41;;;;;;;9.63;3.85;;;15.90;99.90;;;;;;6129214;23;20028;-84
2022/07/18 05:37:07;;;;;;;9.52;3.72;;;16.70;99.90;;;;;;6154053;23;20020;-83
2022/07/18 05:39:33;;;;;;;12.90;3.97;;;16.10;99.90;;;;;;6129418;23;20022;-83
2022/07/18 05:41:58;;;;;;;11.07;3.58;;;16.30;99.90;;;;;;6155341;23;20016;-83
2022/07/18 05:44:24;;;;;;;11.55;4.10;;;16.20;99.90;;;;;;6128356;23;20022;-83
2022/07/18 05:46:50;;;;;;;10.93;3.72;;;16.30;99.90;;;;;;6155308;23;20474;-84
2022/07/18 05:49:16;;;;;;;9.75;3.72;;;16.40;99.90;;;;;;6128774;23;20013;-84
2022/07/18 05:51:41;;;;;;;9.65;3.60;;;17.00;99.90;;;;;;6128357;23;20322;-86
2022/07/18 05:54:07;;;;;;;11.27;3.67;;;16.90;99.90;;;;;;6155180;23;20017;-83
2022/07/18 05:56:33;;;;;;;9.43;3.40;;;16.40;99.90;;;;;;6127902;23;20410;-85
2022/07/18 05:58:59;;;;;;;10.05;3.78;;;16.50;99.90;;;;;;6155170;23;20017;-83
2022/07/18 06:01:25;;;;;;;9.68;3.92;;;16.50;99.90;;;;;;6129112;23;20045;-83
2022/07/18 06:03:50;;;;;;;11.18;3.42;;;16.50;99.90;;;;;;6128199;23;20021;-84
2022/07/18 06:06:18;;;;;;;10.05;3.60;;;16.70;99.90;;;;;;6129079;23;20025;-83
2022/07/18 06:08:44;;;;;;;8.82;3.80;;;16.80;99.90;;;;;;6129090;23;20014;-84
2022/07/18 06:11:10;;;;;;;9.95;3.83;;;17.50;99.90;;;;;;6157651;23;20024;-85
2022/07/18 06:13:38;;;;;;;10.85;3.72;;;17.50;99.90;;;;;;6160835;23;20088;-85
2022/07/18 06:16:05;;;;;;;8.90;3.40;;;17.30;99.90;;;;;;6158271;23;20060;-86
2022/07/18 06:18:30;;;;;;;10.82;4.00;;;17.40;99.90;;;;;;6157627;23;20028;-86
2022/07/18 06:20:56;;;;;;;10.02;3.47;;;17.60;99.90;;;;;;6184818;23;20358;-83
2022/07/18 06:23:22;;;;;;;8.60;3.40;;;17.60;99.90;;;;;;6185086;23;20017;-86
2022/07/18 06:25:47;;;;;;;8.70;3.47;;;17.70;99.90;;;;;;6183309;23;20457;-84
2022/07/18 06:28:13;;;;;;;8.77;3.40;;;17.80;99.90;;;;;;6158319;23;20013;-85
2022/07/18 06:30:38;;;;;;;11.30;3.47;;;17.90;99.90;;;;;;6158697;23;20013;-82
2022/07/18 06:33:05;;;;;;;10.80;3.08;;;18.10;99.90;;;;;;6157169;23;20051;-84
2022/07/18 06:35:31;;;;;;;11.13;3.47;;;18.20;99.90;;;;;;6158718;23;20472;-86
2022/07/18 06:37:57;;;;;;;8.98;3.33;;;18.30;99.90;;;;;;6159254;23;20087;-84
2022/07/18 06:40:25;;;;;;;9.52;3.10;;;18.40;99.90;;;;;;6201068;23;20021;-85
2022/07/18 06:42:51;;;;;;;12.73;3.42;;;18.50;99.90;;;;;;6159891;23;20096;-86
2022/07/18 06:45:17;;;;;;;9.38;3.50;;;18.90;99.90;;;;;;6160374;23;20013;-85
2022/07/18 06:47:42;;;;;;;10.98;3.30;;;18.70;99.90;;;;;;6159236;23;20342;-85
2022/07/18 06:50:10;;;;;;;10.10;3.15;;;18.90;99.90;;;;;;6186898;23;20036;-84
2022/07/18 06:52:38;;;;;;;10.52;3.20;;;19.00;99.90;;;;;;6160384;23;20055;-86
2022/07/18 06:55:04;;;;;;;9.00;3.38;;;19.40;99.90;;;;;;6186744;23;20013;-85
2022/07/18 06:57:30;;;;;;;10.40;3.17;;;19.30;99.90;;;;;;6197868;23;20017;-78
2022/07/18 06:59:56;;;;;;;9.93;3.17;;;19.40;99.90;;;;;;6209972;23;20017;-82
2022/07/18 07:02:22;;;;;;;8.02;2.90;;;19.40;99.90;;;;;;6160422;23;20094;-81
2022/07/18 07:04:47;;;;;;;11.88;3.10;;;19.50;99.90;;;;;;6186969;23;20017;-83
2022/07/18 07:07:13;;;;;;;9.48;3.00;;;19.60;99.90;;;;;;6159595;23;20024;-84
2022/07/18 07:09:38;;;;;;;9.05;3.10;;;19.50;99.90;;;;;;6155198;23;20026;-83
2022/07/18 07:12:04;;;;;;;9.93;3.03;;;19.50;99.90;;;;;;6155010;23;20020;-83
2022/07/18 07:14:30;;;;;;;8.85;2.92;;;19.60;99.90;;;;;;6156292;23;20024;-82
2022/07/18 07:16:55;;;;;;;9.77;3.10;;;19.70;99.90;;;;;;6156658;23;20330;-82
2022/07/18 07:19:21;;;;;;;9.88;3.08;;;20.30;99.90;;;;;;6130603;23;20009;-83
2022/07/18 07:21:46;;;;;;;10.10;3.10;;;20.00;99.90;;;;;;6156047;23;20385;-83
2022/07/18 07:24:12;;;;;;;8.70;3.00;;;20.10;99.90;;;;;;6130347;23;20009;-82
2022/07/18 07:26:37;;;;;;;8.80;3.03;;;20.20;99.90;;;;;;6155073;23;20040;-85
2022/07/18 07:29:03;;;;;;;8.95;2.92;;;20.40;99.90;;;;;;6129353;23;20351;-84
2022/07/18 07:31:29;;;;;;;9.10;2.85;;;21.00;99.90;;;;;;6156896;23;20069;-84
2022/07/18 07:33:54;;;;;;;8.68;2.83;;;20.70;99.90;;;;;;6156207;23;20401;-83
2022/07/18 07:36:21;;;;;;;9.88;2.90;;;20.90;99.90;;;;;;6129385;23;20025;-84
2022/07/18 07:38:47;;;;;;;8.18;2.60;;;21.10;99.90;;;;;;6156809;23;20041;-86
2022/07/18 07:41:13;;;;;;;8.73;2.95;;;21.30;99.90;;;;;;6156820;23;20029;-84
2022/07/18 07:43:38;;;;;;;9.75;2.67;;;21.40;99.90;;;;;;6129444;23;20020;-83
2022/07/18 07:46:04;;;;;;;9.43;2.67;;;21.50;99.90;;;;;;6129837;23;20100;-85
2022/07/18 07:48:30;;;;;;;8.80;2.63;;;21.70;99.90;;;;;;6130400;23;20180;-83
2022/07/18 07:50:59;;;;;;;8.15;2.55;;;21.80;99.90;;;;;;6172234;23;20021;-84
2022/07/18 07:53:25;;;;;;;9.15;2.70;;;21.90;99.90;;;;;;6186022;23;20081;-84
2022/07/18 07:55:50;;;;;;;8.00;2.50;;;22.10;99.90;;;;;;6159497;23;20397;-84
2022/07/18 07:58:19;;;;;;;8.00;2.58;;;22.30;99.90;;;;;;6158895;23;20024;-83
2022/07/18 08:00:44;;;;;;;7.43;2.40;;;22.40;99.90;;;;;;6159378;23;20103;-83
2022/07/18 08:03:10;;;;;;;8.38;2.70;;;22.80;99.90;;;;;;6158920;23;20116;-83
2022/07/18 08:05:43;;;;;;;9.63;2.60;;;22.70;99.90;;;;;;6159736;23;20543;-83
2022/07/18 08:08:09;;;;;;;8.45;2.63;;;22.90;99.90;;;;;;6160011;23;20537;-83
2022/07/18 08:10:35;;;;;;;8.65;2.53;;;23.00;99.90;;;;;;6158978;23;20044;-83
2022/07/18 08:13:00;;;;;;;10.13;2.55;;;23.30;99.90;;;;;;6164195;23;20433;-83
2022/07/18 08:15:26;;;;;;;7.82;2.30;;;23.50;99.90;;;;;;6159825;23;20353;-84
2022/07/18 08:17:52;;;;;;;9.23;2.58;;;23.70;99.90;;;;;;6158467;23;20009;-83
2022/07/18 08:20:18;;;;;;;8.40;2.10;;;24.00;99.90;;;;;;6159592;23;20017;-84
2022/07/18 08:22:58;;;;;;;7.00;2.30;;;24.10;99.90;;;;;;6186031;23;20013;-83
2022/07/18 08:25:25;;;;;;;9.18;2.20;;;24.20;98.10;;;;;;6158702;23;20048;-83
2022/07/18 08:27:51;;;;;;;11.57;3.67;;;24.30;99.90;;;;;;6159166;23;20017;-84
2022/07/18 08:30:17;;;;;;;8.73;2.40;;;24.40;99.60;;;;;;6159731;23;20019;-83
2022/07/18 08:32:43;;;;;;;8.65;2.15;;;24.50;99.80;;;;;;6158459;23;20464;-85
2022/07/18 08:35:09;;;;;;;9.32;2.45;;;24.50;96.40;;;;;;6159590;23;20009;-83
2022/07/18 08:37:34;;;;;;;8.43;2.47;;;24.50;97.20;;;;;;6159521;23;20019;-83
2022/07/18 08:40:00;;;;;;;9.82;2.40;;;24.60;98.00;;;;;;6158116;23;20333;-83
2022/07/18 08:42:27;;;;;;;8.10;2.45;;;24.70;97.80;;;;;;6159090;23;20009;-84
2022/07/18 08:44:57;;;;;;;9.00;2.38;;;24.80;96.80;;;;;;6185294;23;20436;-84
2022/07/18 08:47:23;;;;;;;7.68;2.30;;;24.80;96.90;;;;;;6185439;23;20012;-84
2022/07/18 08:49:49;;;;;;;10.02;2.60;;;25.00;97.00;;;;;;6158942;23;20013;-84
2022/07/18 08:52:16;;;;;;;7.60;2.58;;;25.00;96.80;;;;;;6158535;23;20060;-83
2022/07/18 08:54:42;;;;;;;7.53;2.20;;;25.10;96.40;;;;;;6185822;23;20044;-83
2022/07/18 08:57:08;;;;;;;9.32;2.85;;;25.20;96.00;;;;;;6159206;23;20449;-83
2022/07/18 08:59:34;;;;;;;8.38;2.20;;;25.40;95.80;;;;;;6158357;23;20020;-83
2022/07/18 09:01:59;;;;;;;8.32;2.35;;;25.50;95.50;;;;;;6158835;23;20021;-84
2022/07/18 09:04:40;;;;;;;8.00;2.35;;;25.60;95.10;;;;;;6159101;23;20051;-84
2022/07/18 09:07:10;;;;;;;10.60;2.20;;;25.80;94.20;;;;;;6157777;23;20087;-84
2022/07/18 09:09:37;;;;;;;7.57;2.42;;;26.00;94.30;;;;;;6159013;23;20009;-83
2022/07/18 09:12:06;;;;;;;6.90;2.20;;;26.20;93.80;;;;;;6158575;23;20025;-85
2022/07/18 09:14:45;;;;;;;8.20;2.20;;;26.20;93.80;;;;;;6184881;23;20021;-84
2022/07/18 09:17:16;;;;;;;7.60;2.10;;;26.30;93.50;;;;;;6158861;23;20020;-83
2022/07/18 09:20:01;;;;;;;7.07;2.20;;;26.40;92.60;;;;;;6158960;23;20013;-84
2022/07/18 09:22:33;;;;;;;7.10;2.05;;;26.50;92.00;;;;;;6184895;23;20028;-85
2022/07/18 09:25:20;;;;;;;7.50;2.20;;;26.70;92.40;;;;;;6185226;23;20093;-82
2022/07/18 09:27:51;;;;;;;7.05;2.00;;;26.80;90.00;;;;;;6184503;23;20308;-82
2022/07/18 09:30:17;;;;;;;8.93;2.50;;;26.90;91.10;;;;;;6185281;23;20017;-83
2022/07/18 09:32:52;;;;;;;8.93;2.63;;;26.80;90.10;;;;;;6158791;23;20075;-81
2022/07/18 09:35:24;;;;;;;6.38;1.90;;;26.60;88.00;;;;;;6184725;23;20132;-83
2022/07/18 09:38:10;;;;;;;7.82;2.15;;;26.60;89.90;;;;;;6184929;23;20025;-81
2022/07/18 09:40:40;;;;;;;9.27;2.38;;;26.60;88.80;;;;;;6185593;23;20013;-83
2022/07/18 09:43:09;;;;;;;7.68;2.15;;;26.80;88.10;;;;;;6183481;23;20463;-84
2022/07/18 09:45:35;;;;;;;6.47;2.20;;;26.90;90.30;;;;;;6189255;23;20021;-82
2022/07/18 09:48:07;;;;;;;7.70;2.30;;;26.90;90.10;;;;;;6185073;23;20051;-82
2022/07/18 09:50:53;;;;;;;8.60;1.98;;;27.00;88.90;;;;;;6157706;23;20017;-82
2022/07/18 09:53:23;;;;;;;8.02;2.47;;;27.10;87.60;;;;;;6185243;23;20017;-82
2022/07/18 09:55:53;;;;;;;9.70;2.58;;;27.20;87.70;;;;;;6183866;23;20700;-82
2022/07/18 09:58:22;;;;;;;9.35;2.50;;;27.10;86.20;;;;;;6185214;23;20060;-82
2022/07/18 10:00:48;;;;;;;8.38;2.30;;;27.20;85.20;;;;;;6200844;23;20014;-82
2022/07/18 10:03:14;;;;;;;7.53;2.30;;;27.40;85.60;;;;;;6181618;23;20055;-82
2022/07/18 10:05:41;;;;;;;8.98;2.20;;;27.30;85.60;;;;;;6185455;23;20021;-82
2022/07/18 10:08:13;;;;;;;8.10;2.45;;;27.50;85.10;;;;;;6158415;23;20021;-82
2022/07/18 10:10:41;;;;;;;10.13;2.38;;;27.70;85.70;;;;;;6184411;23;20013;-82
2022/07/18 10:13:07;;;;;;;8.98;2.90;;;27.70;84.50;;;;;;6158968;23;20013;-81
2022/07/18 10:15:38;;;;;;;7.05;2.30;;;27.80;84.40;;;;;;6158516;23;20024;-81
2022/07/18 10:18:07;;;;;;;8.15;2.58;;;27.90;83.60;;;;;;6183739;23;20009;-82
2022/07/18 10:20:37;;;;;;;9.32;2.97;;;27.90;83.60;;;;;;6173748;23;20384;-82
2022/07/18 10:23:09;;;;;;;9.40;2.60;;;27.90;82.70;;;;;;6184572;23;20851;-84
2022/07/18 10:25:36;;;;;;;7.80;2.40;;;27.80;81.70;;;;;;6184333;23;20321;-82
2022/07/18 10:28:08;;;;;;;9.18;2.30;;;27.80;82.60;;;;;;6184794;23;20023;-82
2022/07/18 10:30:41;;;;;;;8.48;2.80;;;27.90;81.80;;;;;;6185332;23;20060;-82
2022/07/18 10:33:48;;;;;;;10.45;2.80;;;28.00;80.90;;;;;;6158336;23;20517;-82
2022/07/18 10:36:18;;;;;;;10.20;2.60;;;28.20;82.70;;;;;;6185037;23;20013;-81
2022/07/18 10:39:08;;;;;;;9.68;2.72;;;28.40;81.00;;;;;;6183873;23;20095;-81
2022/07/18 10:41:57;;;;;;;8.48;2.55;;;28.30;81.50;;;;;;6158261;23;20017;-82
2022/07/18 10:44:29;;;;;;;8.75;2.58;;;28.30;82.60;;;;;;6158370;23;20021;-81
2022/07/18 10:47:09;;;;;;;8.93;2.63;;;28.30;79.60;;;;;;6157283;23;20049;-82
2022/07/18 10:49:47;;;;;;;7.72;2.50;;;28.30;82.80;;;;;;6142521;23;20018;-82
2022/07/18 10:52:25;;;;;;;8.45;2.65;;;28.50;81.50;;;;;;6154489;23;20025;-82
2022/07/18 10:57:34;;;;;;;9.00;3.03;;;28.50;77.60;;;;;;6184861;23;20028;-82
2022/07/18 11:00:08;;;;;;;8.68;2.70;;;28.60;79.40;;;;;;6157081;23;20499;-82
2022/07/18 11:02:39;;;;;;;8.73;2.75;;;28.60;81.00;;;;;;6158561;23;20021;-83
2022/07/18 11:05:23;;;;;;;9.20;2.72;;;28.90;79.10;;;;;;6158243;23;20027;-83
2022/07/18 11:08:01;;;;;;;8.20;2.85;;;29.30;78.90;;;;;;6157095;23;20028;-83
2022/07/18 11:10:45;;;;;;;8.32;3.00;;;29.40;79.20;;;;;;6158526;23;20399;-84
2022/07/18 11:13:30;;;;;;;8.90;2.80;;;29.40;76.90;;;;;;6184241;23;20114;-84
2022/07/18 11:15:59;;;;;;;9.10;3.47;;;29.40;74.50;;;;;;6184812;23;20024;-83
2022/07/18 11:18:25;;;;;;;9.50;3.78;;;29.50;76.60;;;;;;6161428;23;20017;-82
2022/07/18 11:20:51;;;;;;;9.82;3.22;;;29.50;75.60;;;;;;6162808;23;20020;-83
2022/07/18 11:23:27;;;;;;;10.23;3.10;;;29.30;74.80;;;;;;6158408;23;20152;-83
2022/07/18 11:25:58;;;;;;;8.75;3.30;;;29.70;75.00;;;;;;6157741;23;20013;-83
2022/07/18 11:28:26;;;;;;;9.48;2.97;;;29.60;74.90;;;;;;6158144;23;20390;-83
2022/07/18 11:31:02;;;;;;;9.25;2.97;;;29.80;75.90;;;;;;6159633;23;20470;-84
2022/07/18 11:33:31;;;;;;;10.43;3.10;;;29.70;71.10;;;;;;6160383;23;20021;-84
2022/07/18 11:36:11;;;;;;;8.73;3.20;;;29.60;72.00;;;;;;6185491;23;20013;-83
2022/07/18 11:38:47;;;;;;;9.30;3.42;;;29.70;71.20;;;;;;6160111;23;20423;-83
2022/07/18 11:41:13;;;;;;;9.02;3.30;;;30.00;71.90;;;;;;6159058;23;20096;-83
2022/07/18 11:43:39;;;;;;;8.90;3.00;;;30.00;72.80;;;;;;6160160;23;20068;-81
2022/07/18 11:46:07;;;;;;;8.82;3.22;;;30.00;72.80;;;;;;6186363;23;20024;-81
2022/07/18 11:48:34;;;;;;;9.05;3.35;;;30.00;71.50;;;;;;6158808;23;20461;-81
2022/07/18 11:51:00;;;;;;;8.35;3.13;;;30.10;70.90;;;;;;6159190;23;20017;-81
2022/07/18 11:53:27;;;;;;;9.18;3.33;;;30.30;71.10;;;;;;6186684;23;20056;-81
2022/07/18 11:55:54;;;;;;;8.85;3.10;;;30.40;71.40;;;;;;6185020;23;20025;-82
2022/07/18 11:58:19;;;;;;;9.27;3.10;;;30.60;70.40;;;;;;6160070;23;20065;-82
2022/07/18 12:00:46;;;;;;;11.60;3.22;;;30.70;69.10;;;;;;6159511;23;20025;-82
2022/07/18 12:03:18;;;;;;;7.82;2.90;;;30.60;70.10;;;;;;6185638;23;20021;-81
2022/07/18 12:05:49;;;;;;;10.25;3.20;;;30.90;71.00;;;;;;6159260;23;20357;-76
2022/07/18 12:08:38;;;;;;;9.55;3.50;;;30.90;69.50;;;;;;6183965;23;20083;-84
2022/07/18 12:11:05;;;;;;;8.30;3.42;;;30.60;68.50;;;;;;6184972;23;20021;-82
2022/07/18 12:14:00;;;;;;;8.13;3.30;;;30.40;69.40;;;;;;6186400;23;20045;-82
2022/07/18 12:16:57;;;;;;;9.38;3.38;;;30.30;69.40;;;;;;6158673;23;20395;-83
2022/07/18 12:19:47;;;;;;;9.73;3.20;;;30.20;69.20;;;;;;6186331;23;20152;-81
2022/07/18 12:22:14;;;;;;;8.55;3.42;;;30.00;69.60;;;;;;6159915;23;20048;-82
2022/07/18 12:25:04;;;;;;;8.23;3.47;;;29.80;69.30;;;;;;6182928;23;20020;-81
2022/07/18 12:27:29;;;;;;;8.90;3.30;;;29.70;69.30;;;;;;6159468;23;20017;-82
2022/07/18 12:30:11;;;;;;;9.18;3.30;;;29.30;69.80;;;;;;6159347;23;20544;-81
2022/07/18 12:32:47;;;;;;;9.55;3.55;;;29.60;69.40;;;;;;6159019;23;20040;-81
2022/07/18 12:35:22;;;;;;;10.23;3.22;;;29.50;70.20;;;;;;6159769;23;20041;-82
2022/07/18 12:37:53;;;;;;;10.75;3.30;;;29.60;69.50;;;;;;6185022;23;20025;-82
2022/07/18 12:40:19;;;;;;;8.60;3.40;;;29.70;69.50;;;;;;6159210;23;20508;-82
2022/07/18 12:42:45;;;;;;;9.57;3.35;;;30.00;69.80;;;;;;6158791;23;20040;-83
2022/07/18 12:45:12;;;;;;;9.35;3.40;;;30.40;69.40;;;;;;6185193;23;20017;-82
2022/07/18 12:47:38;;;;;;;9.40;3.50;;;30.70;69.40;;;;;;6159662;23;20013;-83
2022/07/18 12:50:05;;;;;;;8.30;3.10;;;31.10;69.40;;;;;;6158919;23;20404;-83
2022/07/18 12:52:32;;;;;;;10.23;3.30;;;31.20;69.10;;;;;;6160738;23;20072;-82
2022/07/18 12:54:58;;;;;;;8.50;3.08;;;31.20;69.00;;;;;;6165107;23;20068;-83
2022/07/18 12:57:23;;;;;;;8.85;3.22;;;31.10;69.30;;;;;;6159239;23;20025;-83
2022/07/18 12:59:49;;;;;;;8.63;3.53;;;31.10;68.70;;;;;;6158419;23;20468;-83
2022/07/18 13:02:16;;;;;;;9.18;3.47;;;31.30;68.70;;;;;;6199347;23;20005;-82